createdAt,value
2022-10-18T00:01:49.903Z,40.43
2022-10-18T00:04:53.497Z,43.87
2022-10-18T00:07:57.013Z,41.50
2022-10-18T00:11:00.585Z,43.20
2022-10-18T00:14:05.691Z,43.53
2022-10-18T00:17:09.286Z,42.60
2022-10-18T00:20:15.488Z,47.80
2022-10-18T00:23:19.030Z,40.70
2022-10-18T00:26:25.247Z,41.63
2022-10-18T00:29:30.423Z,42.73
2022-10-18T00:32:38.384Z,40.90
2022-10-18T00:35:41.927Z,41.63
2022-10-18T00:38:46.787Z,43.57
2022-10-18T00:41:51.675Z,42.33
2022-10-18T00:45:25.501Z,41.90
2022-10-18T00:48:29.340Z,43.97
2022-10-18T00:51:37.867Z,39.20
2022-10-18T00:54:45.573Z,36.93
2022-10-18T00:57:50.788Z,37.27
2022-10-18T01:00:55.744Z,38.43
2022-10-18T01:03:59.361Z,34.10
2022-10-18T01:07:13.821Z,37.50
2022-10-18T01:10:31.647Z,36.67
2022-10-18T01:13:51.296Z,46.10
2022-10-18T01:17:05.019Z,34.33
2022-10-18T01:20:43.019Z,38.20
2022-10-18T01:24:37.573Z,44.80
2022-10-18T01:27:54.362Z,38.10
2022-10-18T01:31:03.358Z,42.47
2022-10-18T01:34:13.150Z,47.53
2022-10-18T01:37:21.286Z,45.10
2022-10-18T01:40:26.533Z,58.23
2022-10-18T01:43:32.960Z,53.83
2022-10-18T01:46:40.998Z,43.80
2022-10-18T01:49:44.608Z,45.63
2022-10-18T01:52:52.950Z,43.10
2022-10-18T01:56:22.822Z,65.70
2022-10-18T01:59:44.830Z,53.47
2022-10-18T02:02:57.804Z,40.20
2022-10-18T02:06:11.509Z,44.10
2022-10-18T02:09:24.815Z,105.17
2022-10-18T02:12:32.903Z,54.50
2022-10-18T02:15:44.601Z,75.47
2022-10-18T02:18:59.054Z,52.23
2022-10-18T02:22:03.557Z,61.80
2022-10-18T02:25:18.013Z,47.47
2022-10-18T02:31:38.268Z,50.40
2022-10-18T02:34:50.458Z,41.20
2022-10-18T02:37:58.272Z,50.30
2022-10-18T02:41:01.950Z,41.53
2022-10-18T02:44:05.785Z,68.20
2022-10-18T02:47:12.578Z,39.00
2022-10-18T02:50:17.714Z,40.73
2022-10-18T02:53:21.303Z,39.33
2022-10-18T02:56:24.855Z,40.33
2022-10-18T02:59:28.465Z,37.37
2022-10-18T03:02:32.089Z,39.50
2022-10-18T03:05:37.011Z,62.87
2022-10-18T03:08:40.691Z,48.57
2022-10-18T03:11:44.288Z,156.73
2022-10-18T03:14:47.819Z,105.87
2022-10-18T03:17:51.369Z,43.33
2022-10-18T03:20:56.326Z,53.67
2022-10-18T03:23:59.879Z,44.07
2022-10-18T03:27:05.339Z,43.57
2022-10-18T03:30:11.745Z,46.57
2022-10-18T03:33:15.420Z,41.73
2022-10-18T03:36:20.300Z,58.17
2022-10-18T03:39:23.866Z,47.30
2022-10-18T03:42:27.461Z,60.07
2022-10-18T03:45:31.609Z,45.30
2022-10-18T03:48:35.415Z,45.43
2022-10-18T03:51:40.372Z,49.27
2022-10-18T03:54:43.918Z,59.43
2022-10-18T03:57:47.467Z,288.67
2022-10-18T04:00:52.195Z,91.30
2022-10-18T04:03:55.694Z,268.23
2022-10-18T04:07:00.610Z,172.13
2022-10-18T04:10:04.337Z,259.27
2022-10-18T04:13:09.057Z,223.57
2022-10-18T04:16:12.574Z,317.60
2022-10-18T04:19:16.627Z,296.90
2022-10-18T04:22:21.543Z,439.60
2022-10-18T04:25:26.095Z,464.43
2022-10-18T04:28:29.749Z,338.60
2022-10-18T04:31:33.407Z,403.93
2022-10-18T04:34:37.067Z,252.07
2022-10-18T04:37:42.369Z,251.03
2022-10-18T04:40:45.934Z,259.47
2022-10-18T04:43:49.512Z,315.93
2022-10-18T04:46:53.086Z,456.53
2022-10-18T04:49:56.614Z,236.00
2022-10-18T04:53:01.552Z,267.77
2022-10-18T04:56:05.159Z,158.17
2022-10-18T04:59:08.727Z,199.80
2022-10-18T05:02:12.333Z,177.63
2022-10-18T05:05:16.112Z,194.93
2022-10-18T05:08:21.157Z,149.70
2022-10-18T05:11:25.039Z,318.17
2022-10-18T05:14:31.764Z,149.07
2022-10-18T05:17:35.805Z,265.87
2022-10-18T05:20:39.336Z,212.30
2022-10-18T05:23:44.391Z,149.17
2022-10-18T05:26:48.347Z,260.33
2022-10-18T05:29:51.874Z,249.73
2022-10-18T05:32:55.411Z,175.90
2022-10-18T05:35:59.232Z,248.73
2022-10-18T05:39:06.335Z,343.43
2022-10-18T05:42:10.080Z,169.00
2022-10-18T05:45:13.628Z,275.60
2022-10-18T05:48:17.308Z,281.50
2022-10-18T05:51:20.996Z,276.10
2022-10-18T05:54:26.031Z,277.30
2022-10-18T05:57:30.019Z,195.90
2022-10-18T06:00:33.904Z,245.73
2022-10-18T06:03:38.135Z,265.20
2022-10-18T06:06:41.829Z,150.20
2022-10-18T06:09:46.799Z,204.97
2022-10-18T06:12:50.387Z,251.00
2022-10-18T06:15:57.817Z,205.03
2022-10-18T06:19:01.566Z,266.33
2022-10-18T06:22:05.091Z,217.70
2022-10-18T06:25:11.199Z,195.57
2022-10-18T06:28:14.817Z,260.17
2022-10-18T06:31:19.169Z,245.67
2022-10-18T06:34:22.978Z,357.13
2022-10-18T06:37:26.641Z,319.40
2022-10-18T06:40:37.797Z,195.97
2022-10-18T06:43:41.451Z,224.67
2022-10-18T06:46:47.431Z,192.13
2022-10-18T06:49:50.998Z,224.20
2022-10-18T06:52:54.608Z,117.63
2022-10-18T06:56:03.573Z,110.07
2022-10-18T06:59:07.331Z,73.20
2022-10-18T07:02:15.795Z,65.33
2022-10-18T07:05:19.615Z,65.37
2022-10-18T07:08:23.201Z,67.13
2022-10-18T07:11:28.786Z,88.93
2022-10-18T07:14:32.365Z,62.37
2022-10-18T07:17:35.915Z,75.27
2022-10-18T07:20:39.682Z,78.27
2022-10-18T07:23:46.247Z,90.40
2022-10-18T07:26:51.328Z,87.80
2022-10-18T07:29:54.886Z,66.23
2022-10-18T07:32:58.473Z,77.60
2022-10-18T07:36:03.509Z,69.17
2022-10-18T07:39:07.887Z,77.27
2022-10-18T07:42:12.873Z,78.23
2022-10-18T07:45:25.150Z,80.57
2022-10-18T07:48:29.287Z,78.27
2022-10-18T07:51:34.793Z,77.40
2022-10-18T07:54:38.500Z,75.23
2022-10-18T07:57:43.611Z,88.23
2022-10-18T08:00:47.112Z,81.47
2022-10-18T08:03:51.781Z,71.37
2022-10-18T08:06:55.351Z,70.07
2022-10-18T08:09:58.840Z,65.07
2022-10-18T08:13:05.345Z,64.07
2022-10-18T08:16:11.834Z,67.43
2022-10-18T08:19:15.393Z,54.03
2022-10-18T08:22:18.911Z,59.23
2022-10-18T08:25:22.609Z,52.43
2022-10-18T08:28:27.553Z,59.17
2022-10-18T08:31:31.532Z,62.93
2022-10-18T08:34:35.150Z,66.23
2022-10-18T08:37:38.775Z,67.10
2022-10-18T08:40:45.279Z,88.30
2022-10-18T08:44:02.095Z,109.50
2022-10-18T08:47:16.021Z,133.37
2022-10-18T08:50:24.040Z,129.57
2022-10-18T08:53:39.261Z,112.90
2022-10-18T08:56:54.003Z,88.60
2022-10-18T08:59:58.990Z,98.30
2022-10-18T09:03:27.244Z,77.63
2022-10-18T09:06:36.851Z,74.63
2022-10-18T09:09:48.640Z,57.97
2022-10-18T09:13:18.707Z,43.33
2022-10-18T09:16:33.394Z,37.93
2022-10-18T09:20:04.920Z,29.50
2022-10-18T09:23:21.034Z,30.60
2022-10-18T09:26:26.842Z,30.80
2022-10-18T09:29:54.255Z,25.47
2022-10-18T09:33:17.641Z,31.37
2022-10-18T09:36:25.561Z,30.00
2022-10-18T09:39:34.871Z,24.23
2022-10-18T09:42:54.424Z,23.53
2022-10-18T09:45:59.158Z,21.57
2022-10-18T09:49:16.269Z,21.93
2022-10-18T09:52:28.369Z,17.97
2022-10-18T09:55:39.824Z,21.37
2022-10-18T09:58:47.092Z,27.23
2022-10-18T10:01:50.719Z,19.87
2022-10-18T10:04:55.999Z,22.60
2022-10-18T10:08:02.474Z,18.67
2022-10-18T10:11:06.471Z,20.87
2022-10-18T10:14:18.026Z,22.17
2022-10-18T10:17:26.466Z,18.53
2022-10-18T10:20:42.830Z,16.60
2022-10-18T10:23:53.725Z,22.77
2022-10-18T10:27:04.366Z,17.77
2022-10-18T10:30:27.680Z,22.80
2022-10-18T10:33:38.563Z,22.17
2022-10-18T10:36:50.262Z,14.03
2022-10-18T10:40:18.827Z,15.67
2022-10-18T10:43:42.565Z,18.13
2022-10-18T10:46:46.787Z,16.67
2022-10-18T10:49:50.310Z,16.40
2022-10-18T10:52:56.355Z,14.17
2022-10-18T10:56:01.709Z,17.77
2022-10-18T10:59:15.565Z,15.03
2022-10-18T11:02:24.444Z,14.87
2022-10-18T11:05:30.022Z,17.23
2022-10-18T11:08:43.638Z,15.30
2022-10-18T11:12:02.810Z,15.40
2022-10-18T11:15:22.194Z,18.30
2022-10-18T11:18:31.555Z,16.43
2022-10-18T11:21:35.518Z,17.03
2022-10-18T11:24:40.461Z,19.20
2022-10-18T11:27:56.695Z,14.93
2022-10-18T11:31:13.886Z,18.87
2022-10-18T11:34:44.562Z,16.43
2022-10-18T11:38:13.607Z,16.83
2022-10-18T11:41:32.826Z,13.90
2022-10-18T11:44:48.790Z,11.40
2022-10-18T11:48:04.117Z,10.00
2022-10-18T11:51:19.787Z,14.03
2022-10-18T11:55:07.118Z,12.17
2022-10-18T11:58:34.098Z,10.90
2022-10-18T12:01:49.106Z,8.87
2022-10-18T12:08:30.383Z,13.27
2022-10-18T12:11:45.442Z,6.07
2022-10-18T12:14:57.764Z,5.77
2022-10-18T12:18:10.135Z,9.30
2022-10-18T12:21:14.555Z,10.13
2022-10-18T12:24:23.849Z,7.73
2022-10-18T12:27:42.177Z,10.30
2022-10-18T12:31:01.212Z,6.07
2022-10-18T12:34:28.263Z,7.17
2022-10-18T12:38:09.948Z,6.83
2022-10-18T12:41:22.481Z,10.50
2022-10-18T12:44:32.800Z,9.77
2022-10-18T12:47:38.099Z,5.07
2022-10-18T12:50:44.961Z,6.47
2022-10-18T12:53:55.932Z,8.83
2022-10-18T12:57:01.375Z,7.77
2022-10-18T13:00:05.655Z,6.37
2022-10-18T13:03:56.008Z,5.90
2022-10-18T13:07:33.784Z,6.90
2022-10-18T13:10:38.263Z,8.30
2022-10-18T13:14:08.719Z,9.67
2022-10-18T13:17:33.433Z,6.27
2022-10-18T13:20:49.192Z,9.27
2022-10-18T13:24:26.100Z,8.17
2022-10-18T13:27:45.712Z,6.63
2022-10-18T13:30:58.741Z,8.77
2022-10-18T13:34:29.410Z,7.13
2022-10-18T13:37:34.452Z,6.50
2022-10-18T13:40:39.192Z,6.63
2022-10-18T13:44:13.109Z,10.87
2022-10-18T13:47:34.467Z,5.67
2022-10-18T13:50:44.291Z,7.13
2022-10-18T13:54:03.046Z,6.70
2022-10-18T13:57:26.140Z,11.03
2022-10-18T14:00:52.935Z,6.67
2022-10-18T14:04:46.628Z,10.10
2022-10-18T14:07:52.195Z,8.53
2022-10-18T14:11:06.099Z,6.60
2022-10-18T14:14:21.244Z,6.83
2022-10-18T14:17:36.427Z,10.90
2022-10-18T14:21:01.359Z,4.53
2022-10-18T14:24:22.450Z,9.03
2022-10-18T14:27:29.779Z,8.07
2022-10-18T14:30:33.642Z,9.60
2022-10-18T14:33:40.115Z,6.57
2022-10-18T14:36:48.907Z,7.67
2022-10-18T14:39:52.749Z,7.13
2022-10-18T14:42:57.876Z,8.93
2022-10-18T14:46:28.939Z,7.00
2022-10-18T14:49:34.854Z,10.77
2022-10-18T14:52:39.305Z,5.70
2022-10-18T14:55:45.061Z,7.40
2022-10-18T14:58:50.206Z,12.23
2022-10-18T15:01:59.715Z,7.10
2022-10-18T15:05:10.008Z,5.10
2022-10-18T15:08:13.815Z,5.53
2022-10-18T15:11:18.762Z,7.93
2022-10-18T15:14:24.222Z,7.27
2022-10-18T15:17:30.960Z,7.93
2022-10-18T15:20:42.250Z,6.73
2022-10-18T15:23:45.795Z,9.63
2022-10-18T15:26:51.505Z,8.70
2022-10-18T15:29:56.918Z,11.77
2022-10-18T15:33:03.904Z,4.43
2022-10-18T15:36:27.285Z,10.03
2022-10-18T15:39:31.818Z,6.77
2022-10-18T15:42:39.456Z,6.60
2022-10-18T15:45:48.936Z,8.60
2022-10-18T15:48:52.573Z,7.20
2022-10-18T15:52:38.132Z,8.13
2022-10-18T15:55:52.459Z,8.50
2022-10-18T15:58:58.018Z,9.13
2022-10-18T16:02:03.324Z,8.17
2022-10-18T16:05:07.527Z,7.50
2022-10-18T16:08:24.131Z,10.53
2022-10-18T16:11:28.311Z,7.70
2022-10-18T16:14:33.134Z,7.03
2022-10-18T16:17:38.068Z,6.87
2022-10-18T16:20:41.625Z,10.43
2022-10-18T16:23:45.726Z,5.50
2022-10-18T16:26:50.035Z,6.33
2022-10-18T16:29:53.758Z,9.40
2022-10-18T16:32:58.824Z,11.20
2022-10-18T16:36:04.595Z,6.07
2022-10-18T16:39:15.164Z,12.93
2022-10-18T16:42:18.974Z,7.83
2022-10-18T16:45:22.503Z,9.87
2022-10-18T16:48:27.943Z,8.67
2022-10-18T16:51:31.531Z,6.23
2022-10-18T16:54:35.771Z,8.87
2022-10-18T16:57:39.526Z,9.37
2022-10-18T17:00:43.306Z,11.47
2022-10-18T17:03:48.919Z,9.07
2022-10-18T17:06:55.640Z,8.73
2022-10-18T17:09:59.246Z,11.03
2022-10-18T17:13:02.891Z,10.13
2022-10-18T17:16:07.453Z,7.27
2022-10-18T17:19:14.850Z,6.83
2022-10-18T17:22:18.406Z,10.30
2022-10-18T17:25:23.861Z,10.77
2022-10-18T17:28:27.442Z,10.13
2022-10-18T17:31:34.607Z,7.77
2022-10-18T17:37:49.774Z,7.90
2022-10-18T17:40:54.480Z,14.70
2022-10-18T17:43:58.292Z,5.50
2022-10-18T17:47:02.031Z,10.60
2022-10-18T17:50:07.807Z,13.13
2022-10-18T17:53:12.135Z,8.63
2022-10-18T17:56:17.050Z,6.43
2022-10-18T17:59:20.763Z,5.77
2022-10-18T18:02:24.291Z,6.80
2022-10-18T18:05:32.595Z,9.13
2022-10-18T18:08:36.111Z,4.23
2022-10-18T18:11:43.507Z,5.07
2022-10-18T18:14:48.179Z,4.57
2022-10-18T18:17:57.208Z,4.03
2022-10-18T18:21:02.652Z,8.23
2022-10-18T18:24:07.047Z,6.47
2022-10-18T18:27:10.560Z,6.97
2022-10-18T18:30:15.562Z,6.13
2022-10-18T18:33:19.284Z,8.43
2022-10-18T18:36:28.845Z,6.87
2022-10-18T18:39:35.749Z,9.17
2022-10-18T18:42:39.564Z,7.23
2022-10-18T18:45:53.140Z,6.50
2022-10-18T18:48:58.671Z,8.67
2022-10-18T18:52:03.716Z,6.23
2022-10-18T18:55:08.296Z,3.33
2022-10-18T18:58:12.953Z,6.87
2022-10-18T19:01:19.968Z,7.47
2022-10-18T19:04:23.907Z,6.63
2022-10-18T19:07:28.860Z,6.33
2022-10-18T19:10:32.886Z,10.97
2022-10-18T19:13:36.615Z,3.23
2022-10-18T19:16:42.128Z,7.23
2022-10-18T19:19:45.702Z,4.67
2022-10-18T19:22:51.452Z,8.03
2022-10-18T19:25:55.167Z,5.53
2022-10-18T19:29:08.346Z,6.23
2022-10-18T19:32:14.011Z,6.07
2022-10-18T19:35:17.680Z,6.03
2022-10-18T19:38:22.715Z,8.23
2022-10-18T19:41:26.611Z,9.73
2022-10-18T19:44:32.825Z,5.80
2022-10-18T19:47:38.437Z,5.30
2022-10-18T19:50:43.171Z,4.40
2022-10-18T19:53:48.419Z,3.07
2022-10-18T19:56:52.122Z,5.23
2022-10-18T19:59:56.738Z,7.70
2022-10-18T20:03:00.659Z,4.10
2022-10-18T20:06:05.051Z,5.60
2022-10-18T20:09:14.689Z,2.90
2022-10-18T20:12:21.484Z,6.50
2022-10-18T20:15:25.148Z,5.40
2022-10-18T20:18:28.769Z,3.43
2022-10-18T20:21:35.913Z,4.30
2022-10-18T20:24:41.143Z,5.60
2022-10-18T20:27:44.717Z,10.17
2022-10-18T20:30:48.223Z,1.97
2022-10-18T20:33:57.320Z,5.07
2022-10-18T20:37:00.906Z,6.70
2022-10-18T20:40:06.651Z,5.10
2022-10-18T20:43:10.233Z,4.67
2022-10-18T20:46:13.869Z,5.23
2022-10-18T20:49:18.386Z,5.53
2022-10-18T20:52:22.877Z,3.00
2022-10-18T20:55:30.152Z,4.20
2022-10-18T20:58:34.743Z,3.00
2022-10-18T21:01:40.149Z,4.33
2022-10-18T21:04:43.771Z,6.97
2022-10-18T21:07:47.331Z,5.40
2022-10-18T21:10:52.279Z,5.03
2022-10-18T21:13:58.979Z,4.63
2022-10-18T21:17:02.546Z,3.20
2022-10-18T21:20:08.276Z,8.23
2022-10-18T21:23:11.849Z,4.23
2022-10-18T21:26:21.904Z,4.43
2022-10-18T21:29:25.864Z,6.53
2022-10-18T21:32:31.167Z,5.50
2022-10-18T21:35:37.404Z,3.23
2022-10-18T21:38:41.609Z,6.50
2022-10-18T21:41:47.775Z,5.77
2022-10-18T21:44:51.339Z,5.47
2022-10-18T21:47:54.956Z,4.87
2022-10-18T21:51:03.504Z,4.87
2022-10-18T21:54:12.553Z,6.77
2022-10-18T21:57:17.547Z,2.53
2022-10-18T22:00:21.260Z,3.53
2022-10-18T22:03:24.968Z,5.37
2022-10-18T22:06:32.360Z,5.33
2022-10-18T22:09:36.084Z,5.30
2022-10-18T22:12:41.002Z,9.77
2022-10-18T22:15:44.551Z,8.63
2022-10-18T22:18:50.877Z,6.83
2022-10-18T22:21:54.576Z,4.83
2022-10-18T22:24:58.294Z,7.13
2022-10-18T22:28:03.331Z,3.90
2022-10-18T22:31:14.296Z,6.97
2022-10-18T22:34:20.562Z,6.27
2022-10-18T22:37:24.103Z,7.27
2022-10-18T22:40:27.931Z,3.80
2022-10-18T22:43:32.850Z,5.60
2022-10-18T22:46:37.082Z,7.13
2022-10-18T22:49:40.584Z,5.67
2022-10-18T22:52:44.139Z,4.33
2022-10-18T22:55:49.484Z,4.03
2022-10-18T22:58:56.047Z,5.27
2022-10-18T23:02:00.132Z,4.00
2022-10-18T23:05:03.723Z,4.57
2022-10-18T23:08:07.386Z,8.27
2022-10-18T23:11:10.919Z,7.07
2022-10-18T23:14:15.828Z,3.33
2022-10-18T23:17:19.380Z,10.63
2022-10-18T23:20:23.376Z,3.57
2022-10-18T23:23:26.923Z,4.67
2022-10-18T23:26:30.488Z,7.50
2022-10-18T23:29:35.446Z,7.43
2022-10-18T23:32:40.363Z,7.40
2022-10-18T23:35:43.897Z,3.83
2022-10-18T23:38:48.014Z,5.33
2022-10-18T23:41:51.525Z,8.20
2022-10-18T23:44:56.944Z,8.53
2022-10-18T23:48:00.527Z,6.10
2022-10-18T23:51:04.735Z,8.80
2022-10-18T23:54:08.298Z,7.80
2022-10-18T23:57:11.823Z,6.30
